sensor_id;sensor_type;location;lat;lon;timestamp;P1;durP1;ratioP1;P2;durP2;ratioP2
7523;SDS011;3803;51.666;7.630;2023-12-28T00:00:17;1.83;;;1.50;;
7523;SDS011;3803;51.666;7.630;2023-12-28T00:00:37;1.92;;;1.60;;
7523;SDS011;3803;51.666;7.630;2023-12-28T00:00:58;1.90;;;1.50;;
7523;SDS011;3803;51.666;7.630;2023-12-28T00:01:19;3.70;;;1.60;;
7523;SDS011;3803;51.666;7.630;2023-12-28T00:01:40;3.53;;;1.60;;
7523;SDS011;3803;51.666;7.630;2023-12-28T00:02:01;4.25;;;1.55;;
7523;SDS011;3803;51.666;7.630;2023-12-28T00:02:22;4.15;;;1.67;;
7523;SDS011;3803;51.666;7.630;2023-12-28T00:02:43;4.43;;;1.60;;
7523;SDS011;3803;51.666;7.630;2023-12-28T00:03:05;3.42;;;1.60;;
7523;SDS011;3803;51.666;7.630;2023-12-28T00:03:26;1.48;;;1.38;;
7523;SDS011;3803;51.666;7.630;2023-12-28T00:03:46;1.60;;;1.50;;
7523;SDS011;3803;51.666;7.630;2023-12-28T00:04:07;2.22;;;1.58;;
7523;SDS011;3803;51.666;7.630;2023-12-28T00:04:28;2.20;;;1.57;;
7523;SDS011;3803;51.666;7.630;2023-12-28T00:04:48;2.20;;;1.50;;
7523;SDS011;3803;51.666;7.630;2023-12-28T00:05:09;1.50;;;1.40;;
7523;SDS011;3803;51.666;7.630;2023-12-28T00:05:29;3.10;;;1.53;;
7523;SDS011;3803;51.666;7.630;2023-12-28T00:05:50;3.25;;;1.65;;
7523;SDS011;3803;51.666;7.630;2023-12-28T00:06:11;3.38;;;1.70;;
7523;SDS011;3803;51.666;7.630;2023-12-28T00:06:31;1.73;;;1.52;;
7523;SDS011;3803;51.666;7.630;2023-12-28T00:06:52;1.80;;;1.60;;
7523;SDS011;3803;51.666;7.630;2023-12-28T00:07:13;1.90;;;1.70;;
7523;SDS011;3803;51.666;7.630;2023-12-28T00:07:34;3.05;;;1.70;;
7523;SDS011;3803;51.666;7.630;2023-12-28T00:07:55;2.95;;;1.55;;
7523;SDS011;3803;51.666;7.630;2023-12-28T00:08:19;2.60;;;1.58;;
7523;SDS011;3803;51.666;7.630;2023-12-28T00:08:40;1.90;;;1.60;;
7523;SDS011;3803;51.666;7.630;2023-12-28T00:09:00;2.30;;;1.70;;
7523;SDS011;3803;51.666;7.630;2023-12-28T00:09:21;2.50;;;1.60;;
7523;SDS011;3803;51.666;7.630;2023-12-28T00:09:42;2.50;;;1.63;;
7523;SDS011;3803;51.666;7.630;2023-12-28T00:10:03;4.00;;;1.60;;
7523;SDS011;3803;51.666;7.630;2023-12-28T00:10:25;4.00;;;1.60;;
7523;SDS011;3803;51.666;7.630;2023-12-28T00:10:46;3.67;;;1.40;;
7523;SDS011;3803;51.666;7.630;2023-12-28T00:11:07;2.50;;;1.67;;
7523;SDS011;3803;51.666;7.630;2023-12-28T00:11:27;3.83;;;1.70;;
7523;SDS011;3803;51.666;7.630;2023-12-28T00:11:48;4.23;;;1.77;;
7523;SDS011;3803;51.666;7.630;2023-12-28T00:12:21;3.88;;;1.60;;
7523;SDS011;3803;51.666;7.630;2023-12-28T00:12:44;2.60;;;1.60;;
7523;SDS011;3803;51.666;7.630;2023-12-28T00:13:04;3.97;;;1.67;;
7523;SDS011;3803;51.666;7.630;2023-12-28T00:13:25;3.90;;;1.75;;
7523;SDS011;3803;51.666;7.630;2023-12-28T00:13:46;4.73;;;1.80;;
7523;SDS011;3803;51.666;7.630;2023-12-28T00:14:06;3.33;;;1.67;;
7523;SDS011;3803;51.666;7.630;2023-12-28T00:14:27;2.90;;;1.60;;
7523;SDS011;3803;51.666;7.630;2023-12-28T00:14:48;1.93;;;1.50;;
7523;SDS011;3803;51.666;7.630;2023-12-28T00:15:08;1.70;;;1.40;;
7523;SDS011;3803;51.666;7.630;2023-12-28T00:15:29;1.65;;;1.40;;
7523;SDS011;3803;51.666;7.630;2023-12-28T00:15:50;1.75;;;1.42;;
7523;SDS011;3803;51.666;7.630;2023-12-28T00:16:10;2.20;;;1.50;;
7523;SDS011;3803;51.666;7.630;2023-12-28T00:16:31;2.30;;;1.50;;
7523;SDS011;3803;51.666;7.630;2023-12-28T00:16:57;3.60;;;1.60;;
7523;SDS011;3803;51.666;7.630;2023-12-28T00:17:17;3.93;;;1.80;;
7523;SDS011;3803;51.666;7.630;2023-12-28T00:17:38;4.45;;;1.92;;
7523;SDS011;3803;51.666;7.630;2023-12-28T00:17:59;3.40;;;1.95;;
7523;SDS011;3803;51.666;7.630;2023-12-28T00:18:19;2.95;;;1.83;;
7523;SDS011;3803;51.666;7.630;2023-12-28T00:18:40;2.60;;;1.70;;
7523;SDS011;3803;51.666;7.630;2023-12-28T00:19:00;2.25;;;1.65;;
7523;SDS011;3803;51.666;7.630;2023-12-28T00:19:22;2.88;;;1.77;;
7523;SDS011;3803;51.666;7.630;2023-12-28T00:19:43;2.20;;;1.50;;
7523;SDS011;3803;51.666;7.630;2023-12-28T00:20:04;3.90;;;1.80;;
7523;SDS011;3803;51.666;7.630;2023-12-28T00:20:25;4.07;;;1.77;;
7523;SDS011;3803;51.666;7.630;2023-12-28T00:20:45;5.03;;;2.00;;
7523;SDS011;3803;51.666;7.630;2023-12-28T00:21:06;3.20;;;1.80;;
7523;SDS011;3803;51.666;7.630;2023-12-28T00:21:27;2.92;;;1.67;;
7523;SDS011;3803;51.666;7.630;2023-12-28T00:21:48;2.03;;;1.40;;
7523;SDS011;3803;51.666;7.630;2023-12-28T00:22:08;2.47;;;1.40;;
7523;SDS011;3803;51.666;7.630;2023-12-28T00:22:29;2.53;;;1.52;;
7523;SDS011;3803;51.666;7.630;2023-12-28T00:22:50;3.53;;;1.80;;
7523;SDS011;3803;51.666;7.630;2023-12-28T00:23:10;3.70;;;2.00;;
7523;SDS011;3803;51.666;7.630;2023-12-28T00:23:31;3.13;;;1.80;;
7523;SDS011;3803;51.666;7.630;2023-12-28T00:23:52;2.20;;;1.63;;
7523;SDS011;3803;51.666;7.630;2023-12-28T00:24:13;1.58;;;1.40;;
7523;SDS011;3803;51.666;7.630;2023-12-28T00:24:35;2.05;;;1.60;;
7523;SDS011;3803;51.666;7.630;2023-12-28T00:24:56;2.17;;;1.70;;
7523;SDS011;3803;51.666;7.630;2023-12-28T00:25:16;2.53;;;1.90;;
7523;SDS011;3803;51.666;7.630;2023-12-28T00:25:37;2.50;;;1.83;;
7523;SDS011;3803;51.666;7.630;2023-12-28T00:25:58;2.47;;;1.70;;
7523;SDS011;3803;51.666;7.630;2023-12-28T00:26:18;2.72;;;1.63;;
7523;SDS011;3803;51.666;7.630;2023-12-28T00:26:43;2.97;;;1.63;;
7523;SDS011;3803;51.666;7.630;2023-12-28T00:27:04;3.38;;;1.70;;
7523;SDS011;3803;51.666;7.630;2023-12-28T00:27:25;4.10;;;1.80;;
7523;SDS011;3803;51.666;7.630;2023-12-28T00:27:45;4.10;;;1.73;;
7523;SDS011;3803;51.666;7.630;2023-12-28T00:28:06;4.57;;;1.85;;
7523;SDS011;3803;51.666;7.630;2023-12-28T00:28:27;3.88;;;1.80;;
7523;SDS011;3803;51.666;7.630;2023-12-28T00:28:48;3.10;;;1.70;;
7523;SDS011;3803;51.666;7.630;2023-12-28T00:29:09;2.08;;;1.50;;
7523;SDS011;3803;51.666;7.630;2023-12-28T00:29:29;2.10;;;1.52;;
7523;SDS011;3803;51.666;7.630;2023-12-28T00:29:50;2.40;;;1.70;;
7523;SDS011;3803;51.666;7.630;2023-12-28T00:30:13;2.50;;;1.80;;
7523;SDS011;3803;51.666;7.630;2023-12-28T00:30:34;2.60;;;1.70;;
7523;SDS011;3803;51.666;7.630;2023-12-28T00:30:54;2.50;;;1.80;;
7523;SDS011;3803;51.666;7.630;2023-12-28T00:31:15;2.78;;;1.75;;
7523;SDS011;3803;51.666;7.630;2023-12-28T00:31:36;3.88;;;1.88;;
7523;SDS011;3803;51.666;7.630;2023-12-28T00:31:57;4.63;;;2.00;;
7523;SDS011;3803;51.666;7.630;2023-12-28T00:32:17;4.80;;;2.30;;
7523;SDS011;3803;51.666;7.630;2023-12-28T00:32:38;4.05;;;2.33;;
7523;SDS011;3803;51.666;7.630;2023-12-28T00:33:03;3.40;;;2.22;;
7523;SDS011;3803;51.666;7.630;2023-12-28T00:33:24;3.30;;;2.20;;
7523;SDS011;3803;51.666;7.630;2023-12-28T00:33:44;4.90;;;2.03;;
7523;SDS011;3803;51.666;7.630;2023-12-28T00:34:05;4.90;;;2.00;;
7523;SDS011;3803;51.666;7.630;2023-12-28T00:34:26;4.47;;;2.20;;
7523;SDS011;3803;51.666;7.630;2023-12-28T00:34:46;3.50;;;2.38;;
7523;SDS011;3803;51.666;7.630;2023-12-28T00:35:07;3.90;;;2.40;;
7523;SDS011;3803;51.666;7.630;2023-12-28T00:35:28;4.30;;;2.10;;
7523;SDS011;3803;51.666;7.630;2023-12-28T00:35:51;4.13;;;2.00;;
7523;SDS011;3803;51.666;7.630;2023-12-28T00:36:12;3.60;;;1.90;;
7523;SDS011;3803;51.666;7.630;2023-12-28T00:36:32;2.40;;;1.93;;
7523;SDS011;3803;51.666;7.630;2023-12-28T00:36:53;2.90;;;2.10;;
7523;SDS011;3803;51.666;7.630;2023-12-28T00:37:14;3.85;;;2.17;;
7523;SDS011;3803;51.666;7.630;2023-12-28T00:37:34;4.00;;;2.10;;
7523;SDS011;3803;51.666;7.630;2023-12-28T00:37:55;3.75;;;1.92;;
7523;SDS011;3803;51.666;7.630;2023-12-28T00:38:16;3.70;;;2.10;;
7523;SDS011;3803;51.666;7.630;2023-12-28T00:38:37;3.67;;;2.20;;
7523;SDS011;3803;51.666;7.630;2023-12-28T00:38:58;3.80;;;2.17;;
7523;SDS011;3803;51.666;7.630;2023-12-28T00:39:18;3.50;;;2.10;;
7523;SDS011;3803;51.666;7.630;2023-12-28T00:39:39;3.70;;;2.22;;
7523;SDS011;3803;51.666;7.630;2023-12-28T00:40:01;3.40;;;2.30;;
7523;SDS011;3803;51.666;7.630;2023-12-28T00:40:23;3.72;;;2.38;;
7523;SDS011;3803;51.666;7.630;2023-12-28T00:40:44;3.45;;;2.25;;
7523;SDS011;3803;51.666;7.630;2023-12-28T00:41:04;4.72;;;2.30;;
7523;SDS011;3803;51.666;7.630;2023-12-28T00:41:25;3.92;;;1.90;;
7523;SDS011;3803;51.666;7.630;2023-12-28T00:41:46;3.37;;;1.80;;
7523;SDS011;3803;51.666;7.630;2023-12-28T00:42:06;2.90;;;1.90;;
7523;SDS011;3803;51.666;7.630;2023-12-28T00:42:27;2.63;;;1.92;;
7523;SDS011;3803;51.666;7.630;2023-12-28T00:42:48;2.30;;;2.10;;
7523;SDS011;3803;51.666;7.630;2023-12-28T00:43:08;3.03;;;2.05;;
7523;SDS011;3803;51.666;7.630;2023-12-28T00:43:29;4.80;;;1.98;;
7523;SDS011;3803;51.666;7.630;2023-12-28T00:43:50;6.95;;;1.90;;
7523;SDS011;3803;51.666;7.630;2023-12-28T00:44:10;6.77;;;1.87;;
7523;SDS011;3803;51.666;7.630;2023-12-28T00:44:31;5.20;;;2.00;;
7523;SDS011;3803;51.666;7.630;2023-12-28T00:44:52;2.50;;;1.88;;
7523;SDS011;3803;51.666;7.630;2023-12-28T00:45:13;2.42;;;1.80;;
7523;SDS011;3803;51.666;7.630;2023-12-28T00:45:34;2.40;;;1.60;;
7523;SDS011;3803;51.666;7.630;2023-12-28T00:45:54;2.20;;;1.40;;
7523;SDS011;3803;51.666;7.630;2023-12-28T00:46:15;1.57;;;1.30;;
7523;SDS011;3803;51.666;7.630;2023-12-28T00:46:35;2.70;;;1.70;;
7523;SDS011;3803;51.666;7.630;2023-12-28T00:46:56;2.60;;;1.70;;
7523;SDS011;3803;51.666;7.630;2023-12-28T00:47:17;2.40;;;1.80;;
7523;SDS011;3803;51.666;7.630;2023-12-28T00:47:37;2.90;;;1.70;;
7523;SDS011;3803;51.666;7.630;2023-12-28T00:47:58;3.50;;;1.70;;
7523;SDS011;3803;51.666;7.630;2023-12-28T00:48:19;3.60;;;1.80;;
7523;SDS011;3803;51.666;7.630;2023-12-28T00:48:39;2.20;;;1.70;;
7523;SDS011;3803;51.666;7.630;2023-12-28T00:49:01;2.10;;;1.70;;
7523;SDS011;3803;51.666;7.630;2023-12-28T00:49:21;2.83;;;1.73;;
7523;SDS011;3803;51.666;7.630;2023-12-28T00:49:42;3.60;;;2.00;;
7523;SDS011;3803;51.666;7.630;2023-12-28T00:50:03;4.28;;;1.98;;
7523;SDS011;3803;51.666;7.630;2023-12-28T00:50:24;3.15;;;1.77;;
7523;SDS011;3803;51.666;7.630;2023-12-28T00:50:47;2.92;;;1.70;;
7523;SDS011;3803;51.666;7.630;2023-12-28T00:51:08;2.03;;;1.67;;
7523;SDS011;3803;51.666;7.630;2023-12-28T00:51:29;2.33;;;1.60;;
7523;SDS011;3803;51.666;7.630;2023-12-28T00:51:49;1.88;;;1.48;;
7523;SDS011;3803;51.666;7.630;2023-12-28T00:52:10;1.80;;;1.40;;
7523;SDS011;3803;51.666;7.630;2023-12-28T00:52:30;1.60;;;1.50;;
7523;SDS011;3803;51.666;7.630;2023-12-28T00:52:51;3.10;;;1.48;;
7523;SDS011;3803;51.666;7.630;2023-12-28T00:53:12;3.20;;;1.50;;
7523;SDS011;3803;51.666;7.630;2023-12-28T00:53:33;3.05;;;1.70;;
7523;SDS011;3803;51.666;7.630;2023-12-28T00:53:54;2.05;;;1.70;;
7523;SDS011;3803;51.666;7.630;2023-12-28T00:54:15;2.10;;;1.70;;
7523;SDS011;3803;51.666;7.630;2023-12-28T00:54:36;2.10;;;1.70;;
7523;SDS011;3803;51.666;7.630;2023-12-28T00:54:57;2.15;;;1.70;;
7523;SDS011;3803;51.666;7.630;2023-12-28T00:55:17;1.85;;;1.55;;
7523;SDS011;3803;51.666;7.630;2023-12-28T00:55:38;2.20;;;1.60;;
7523;SDS011;3803;51.666;7.630;2023-12-28T00:55:59;2.63;;;1.52;;
7523;SDS011;3803;51.666;7.630;2023-12-28T00:56:19;2.75;;;1.60;;
7523;SDS011;3803;51.666;7.630;2023-12-28T00:56:41;2.10;;;1.60;;
7523;SDS011;3803;51.666;7.630;2023-12-28T00:57:05;3.80;;;1.60;;
7523;SDS011;3803;51.666;7.630;2023-12-28T00:57:26;4.25;;;1.70;;
7523;SDS011;3803;51.666;7.630;2023-12-28T00:57:46;5.50;;;1.90;;
7523;SDS011;3803;51.666;7.630;2023-12-28T00:58:07;3.67;;;2.00;;
7523;SDS011;3803;51.666;7.630;2023-12-28T00:58:28;4.57;;;2.23;;
7523;SDS011;3803;51.666;7.630;2023-12-28T00:58:48;5.03;;;2.25;;
7523;SDS011;3803;51.666;7.630;2023-12-28T00:59:09;4.80;;;2.20;;
7523;SDS011;3803;51.666;7.630;2023-12-28T00:59:29;4.20;;;2.00;;
7523;SDS011;3803;51.666;7.630;2023-12-28T00:59:51;2.47;;;1.67;;
7523;SDS011;3803;51.666;7.630;2023-12-28T01:00:12;2.42;;;1.58;;
7523;SDS011;3803;51.666;7.630;2023-12-28T01:00:33;2.13;;;1.70;;
7523;SDS011;3803;51.666;7.630;2023-12-28T01:00:53;2.50;;;1.97;;
7523;SDS011;3803;51.666;7.630;2023-12-28T01:01:16;2.85;;;2.00;;
7523;SDS011;3803;51.666;7.630;2023-12-28T01:01:36;2.87;;;1.87;;
7523;SDS011;3803;51.666;7.630;2023-12-28T01:01:57;3.28;;;1.88;;
7523;SDS011;3803;51.666;7.630;2023-12-28T01:02:20;3.35;;;1.80;;
7523;SDS011;3803;51.666;7.630;2023-12-28T01:02:42;3.08;;;1.90;;
7523;SDS011;3803;51.666;7.630;2023-12-28T01:03:03;2.00;;;1.73;;
7523;SDS011;3803;51.666;7.630;2023-12-28T01:03:24;2.20;;;1.90;;
7523;SDS011;3803;51.666;7.630;2023-12-28T01:03:47;2.20;;;1.90;;
7523;SDS011;3803;51.666;7.630;2023-12-28T01:04:07;2.20;;;1.80;;
7523;SDS011;3803;51.666;7.630;2023-12-28T01:04:28;2.17;;;1.80;;
7523;SDS011;3803;51.666;7.630;2023-12-28T01:04:49;4.33;;;1.90;;
7523;SDS011;3803;51.666;7.630;2023-12-28T01:05:13;4.30;;;2.00;;
7523;SDS011;3803;51.666;7.630;2023-12-28T01:05:35;3.05;;;2.08;;
7523;SDS011;3803;51.666;7.630;2023-12-28T01:05:57;2.78;;;2.15;;
7523;SDS011;3803;51.666;7.630;2023-12-28T01:06:18;3.00;;;2.05;;
7523;SDS011;3803;51.666;7.630;2023-12-28T01:06:38;2.60;;;1.88;;
7523;SDS011;3803;51.666;7.630;2023-12-28T01:06:59;2.33;;;1.80;;
7523;SDS011;3803;51.666;7.630;2023-12-28T01:07:22;2.08;;;1.73;;
7523;SDS011;3803;51.666;7.630;2023-12-28T01:07:45;1.90;;;1.60;;
7523;SDS011;3803;51.666;7.630;2023-12-28T01:08:05;1.90;;;1.60;;
7523;SDS011;3803;51.666;7.630;2023-12-28T01:08:27;1.90;;;1.70;;
7523;SDS011;3803;51.666;7.630;2023-12-28T01:08:47;2.42;;;1.90;;
7523;SDS011;3803;51.666;7.630;2023-12-28T01:09:08;3.20;;;1.90;;
7523;SDS011;3803;51.666;7.630;2023-12-28T01:09:29;3.17;;;1.98;;
7523;SDS011;3803;51.666;7.630;2023-12-28T01:09:50;4.13;;;2.08;;
7523;SDS011;3803;51.666;7.630;2023-12-28T01:10:11;3.97;;;2.03;;
7523;SDS011;3803;51.666;7.630;2023-12-28T01:10:32;4.07;;;2.00;;
7523;SDS011;3803;51.666;7.630;2023-12-28T01:10:52;2.50;;;1.80;;
7523;SDS011;3803;51.666;7.630;2023-12-28T01:11:13;2.00;;;1.70;;
7523;SDS011;3803;51.666;7.630;2023-12-28T01:11:34;3.15;;;1.70;;
7523;SDS011;3803;51.666;7.630;2023-12-28T01:11:55;3.00;;;1.60;;
7523;SDS011;3803;51.666;7.630;2023-12-28T01:12:18;3.20;;;1.70;;
7523;SDS011;3803;51.666;7.630;2023-12-28T01:12:39;2.00;;;1.80;;
7523;SDS011;3803;51.666;7.630;2023-12-28T01:13:00;2.50;;;1.90;;
7523;SDS011;3803;51.666;7.630;2023-12-28T01:13:20;4.63;;;2.08;;
7523;SDS011;3803;51.666;7.630;2023-12-28T01:13:41;4.22;;;1.90;;
7523;SDS011;3803;51.666;7.630;2023-12-28T01:14:02;4.40;;;1.90;;
7523;SDS011;3803;51.666;7.630;2023-12-28T01:14:23;2.50;;;1.90;;
7523;SDS011;3803;51.666;7.630;2023-12-28T01:14:43;2.58;;;1.83;;
7523;SDS011;3803;51.666;7.630;2023-12-28T01:15:04;2.20;;;1.60;;
7523;SDS011;3803;51.666;7.630;2023-12-28T01:15:25;2.40;;;1.70;;
7523;SDS011;3803;51.666;7.630;2023-12-28T01:15:46;2.40;;;1.80;;
7523;SDS011;3803;51.666;7.630;2023-12-28T01:16:06;2.43;;;2.00;;
7523;SDS011;3803;51.666;7.630;2023-12-28T01:16:27;3.03;;;2.28;;
7523;SDS011;3803;51.666;7.630;2023-12-28T01:16:49;3.60;;;2.50;;
7523;SDS011;3803;51.666;7.630;2023-12-28T01:17:09;3.25;;;2.30;;
7523;SDS011;3803;51.666;7.630;2023-12-28T01:17:30;2.25;;;1.80;;
7523;SDS011;3803;51.666;7.630;2023-12-28T01:17:52;2.03;;;1.60;;
7523;SDS011;3803;51.666;7.630;2023-12-28T01:18:13;2.00;;;1.70;;
7523;SDS011;3803;51.666;7.630;2023-12-28T01:18:33;4.23;;;1.60;;
7523;SDS011;3803;51.666;7.630;2023-12-28T01:18:54;4.40;;;1.70;;
7523;SDS011;3803;51.666;7.630;2023-12-28T01:19:15;5.05;;;1.73;;
7523;SDS011;3803;51.666;7.630;2023-12-28T01:19:35;3.20;;;1.80;;
7523;SDS011;3803;51.666;7.630;2023-12-28T01:19:56;3.38;;;1.88;;
7523;SDS011;3803;51.666;7.630;2023-12-28T01:20:17;2.90;;;1.93;;
7523;SDS011;3803;51.666;7.630;2023-12-28T01:20:37;3.05;;;1.92;;
7523;SDS011;3803;51.666;7.630;2023-12-28T01:20:58;3.00;;;1.95;;
7523;SDS011;3803;51.666;7.630;2023-12-28T01:21:20;2.85;;;1.85;;
7523;SDS011;3803;51.666;7.630;2023-12-28T01:21:40;2.37;;;1.80;;
7523;SDS011;3803;51.666;7.630;2023-12-28T01:22:01;2.30;;;1.80;;
7523;SDS011;3803;51.666;7.630;2023-12-28T01:22:22;2.30;;;1.73;;
7523;SDS011;3803;51.666;7.630;2023-12-28T01:22:42;2.63;;;1.87;;
7523;SDS011;3803;51.666;7.630;2023-12-28T01:23:03;3.50;;;2.03;;
7523;SDS011;3803;51.666;7.630;2023-12-28T01:23:24;3.88;;;2.10;;
7523;SDS011;3803;51.666;7.630;2023-12-28T01:23:47;3.03;;;1.75;;
7523;SDS011;3803;51.666;7.630;2023-12-28T01:24:08;1.83;;;1.50;;
7523;SDS011;3803;51.666;7.630;2023-12-28T01:24:29;2.20;;;1.80;;
7523;SDS011;3803;51.666;7.630;2023-12-28T01:24:50;2.47;;;2.03;;
7523;SDS011;3803;51.666;7.630;2023-12-28T01:25:10;2.53;;;2.10;;
7523;SDS011;3803;51.666;7.630;2023-12-28T01:25:31;3.30;;;1.90;;
7523;SDS011;3803;51.666;7.630;2023-12-28T01:25:52;3.03;;;1.77;;
7523;SDS011;3803;51.666;7.630;2023-12-28T01:26:13;3.05;;;1.67;;
7523;SDS011;3803;51.666;7.630;2023-12-28T01:26:37;3.00;;;1.75;;
7523;SDS011;3803;51.666;7.630;2023-12-28T01:26:58;3.50;;;1.80;;
7523;SDS011;3803;51.666;7.630;2023-12-28T01:27:18;3.65;;;1.80;;
7523;SDS011;3803;51.666;7.630;2023-12-28T01:27:39;5.00;;;2.00;;
7523;SDS011;3803;51.666;7.630;2023-12-28T01:28:00;4.80;;;2.00;;
7523;SDS011;3803;51.666;7.630;2023-12-28T01:28:21;4.07;;;1.97;;
7523;SDS011;3803;51.666;7.630;2023-12-28T01:28:41;3.47;;;1.90;;
7523;SDS011;3803;51.666;7.630;2023-12-28T01:29:03;3.00;;;2.10;;
7523;SDS011;3803;51.666;7.630;2023-12-28T01:29:25;2.70;;;2.00;;
7523;SDS011;3803;51.666;7.630;2023-12-28T01:29:45;2.73;;;1.87;;
7523;SDS011;3803;51.666;7.630;2023-12-28T01:30:06;2.90;;;1.80;;
7523;SDS011;3803;51.666;7.630;2023-12-28T01:30:27;2.72;;;1.92;;
7523;SDS011;3803;51.666;7.630;2023-12-28T01:30:48;2.35;;;1.80;;
7523;SDS011;3803;51.666;7.630;2023-12-28T01:31:09;2.78;;;1.80;;
7523;SDS011;3803;51.666;7.630;2023-12-28T01:31:29;3.35;;;1.80;;
7523;SDS011;3803;51.666;7.630;2023-12-28T01:31:50;3.22;;;2.03;;
7523;SDS011;3803;51.666;7.630;2023-12-28T01:32:11;2.80;;;2.00;;
7523;SDS011;3803;51.666;7.630;2023-12-28T01:32:31;2.80;;;2.10;;
7523;SDS011;3803;51.666;7.630;2023-12-28T01:32:52;3.22;;;2.00;;
7523;SDS011;3803;51.666;7.630;2023-12-28T01:33:14;3.80;;;2.20;;
7523;SDS011;3803;51.666;7.630;2023-12-28T01:33:34;4.23;;;2.10;;
7523;SDS011;3803;51.666;7.630;2023-12-28T01:33:56;3.85;;;2.00;;
7523;SDS011;3803;51.666;7.630;2023-12-28T01:34:16;3.13;;;1.80;;
7523;SDS011;3803;51.666;7.630;2023-12-28T01:34:37;2.40;;;1.80;;
7523;SDS011;3803;51.666;7.630;2023-12-28T01:34:58;2.80;;;2.00;;
7523;SDS011;3803;51.666;7.630;2023-12-28T01:35:18;3.85;;;2.20;;
7523;SDS011;3803;51.666;7.630;2023-12-28T01:35:39;3.80;;;2.20;;
7523;SDS011;3803;51.666;7.630;2023-12-28T01:36:02;3.75;;;2.15;;
7523;SDS011;3803;51.666;7.630;2023-12-28T01:36:22;2.90;;;2.05;;
7523;SDS011;3803;51.666;7.630;2023-12-28T01:36:44;3.15;;;2.15;;
7523;SDS011;3803;51.666;7.630;2023-12-28T01:37:05;2.97;;;2.10;;
7523;SDS011;3803;51.666;7.630;2023-12-28T01:37:25;3.17;;;2.20;;
7523;SDS011;3803;51.666;7.630;2023-12-28T01:37:50;2.72;;;1.90;;
7523;SDS011;3803;51.666;7.630;2023-12-28T01:38:11;2.70;;;1.77;;
7523;SDS011;3803;51.666;7.630;2023-12-28T01:38:32;2.40;;;1.60;;
7523;SDS011;3803;51.666;7.630;2023-12-28T01:38:52;2.20;;;1.70;;
7523;SDS011;3803;51.666;7.630;2023-12-28T01:39:13;2.30;;;1.70;;
7523;SDS011;3803;51.666;7.630;2023-12-28T01:39:35;2.13;;;1.73;;
7523;SDS011;3803;51.666;7.630;2023-12-28T01:39:56;1.95;;;1.75;;
7523;SDS011;3803;51.666;7.630;2023-12-28T01:40:17;2.67;;;1.88;;
7523;SDS011;3803;51.666;7.630;2023-12-28T01:40:43;4.03;;;1.95;;
7523;SDS011;3803;51.666;7.630;2023-12-28T01:41:04;4.10;;;2.13;;
7523;SDS011;3803;51.666;7.630;2023-12-28T01:41:28;3.35;;;2.10;;
7523;SDS011;3803;51.666;7.630;2023-12-28T01:41:49;2.83;;;2.10;;
7523;SDS011;3803;51.666;7.630;2023-12-28T01:42:10;2.15;;;1.90;;
7523;SDS011;3803;51.666;7.630;2023-12-28T01:42:30;2.83;;;2.10;;
7523;SDS011;3803;51.666;7.630;2023-12-28T01:42:52;4.40;;;2.30;;
7523;SDS011;3803;51.666;7.630;2023-12-28T01:43:12;4.63;;;2.40;;
7523;SDS011;3803;51.666;7.630;2023-12-28T01:43:33;3.33;;;2.08;;
7523;SDS011;3803;51.666;7.630;2023-12-28T01:43:54;2.50;;;2.00;;
7523;SDS011;3803;51.666;7.630;2023-12-28T01:44:14;2.63;;;2.00;;
7523;SDS011;3803;51.666;7.630;2023-12-28T01:44:35;2.72;;;1.95;;
7523;SDS011;3803;51.666;7.630;2023-12-28T01:44:57;3.92;;;1.98;;
7523;SDS011;3803;51.666;7.630;2023-12-28T01:45:17;3.50;;;1.88;;
7523;SDS011;3803;51.666;7.630;2023-12-28T01:45:38;3.65;;;1.92;;
7523;SDS011;3803;51.666;7.630;2023-12-28T01:46:02;3.20;;;2.00;;
7523;SDS011;3803;51.666;7.630;2023-12-28T01:46:22;2.80;;;1.90;;
7523;SDS011;3803;51.666;7.630;2023-12-28T01:46:43;2.80;;;1.92;;
7523;SDS011;3803;51.666;7.630;2023-12-28T01:47:04;3.10;;;1.90;;
7523;SDS011;3803;51.666;7.630;2023-12-28T01:47:25;3.20;;;1.98;;
7523;SDS011;3803;51.666;7.630;2023-12-28T01:47:46;2.10;;;1.75;;
7523;SDS011;3803;51.666;7.630;2023-12-28T01:48:08;1.70;;;1.60;;
7523;SDS011;3803;51.666;7.630;2023-12-28T01:48:30;1.80;;;1.70;;
7523;SDS011;3803;51.666;7.630;2023-12-28T01:48:50;2.75;;;1.90;;
7523;SDS011;3803;51.666;7.630;2023-12-28T01:49:15;3.50;;;1.80;;
7523;SDS011;3803;51.666;7.630;2023-12-28T01:49:36;3.42;;;1.75;;
7523;SDS011;3803;51.666;7.630;2023-12-28T01:49:57;2.83;;;1.90;;
7523;SDS011;3803;51.666;7.630;2023-12-28T01:50:20;2.33;;;1.80;;
7523;SDS011;3803;51.666;7.630;2023-12-28T01:50:41;2.45;;;1.80;;
7523;SDS011;3803;51.666;7.630;2023-12-28T01:51:02;1.50;;;1.40;;
7523;SDS011;3803;51.666;7.630;2023-12-28T01:51:23;1.88;;;1.65;;
7523;SDS011;3803;51.666;7.630;2023-12-28T01:51:45;1.60;;;1.50;;
7523;SDS011;3803;51.666;7.630;2023-12-28T01:52:07;1.75;;;1.60;;
7523;SDS011;3803;51.666;7.630;2023-12-28T01:52:27;2.03;;;1.60;;
7523;SDS011;3803;51.666;7.630;2023-12-28T01:52:51;2.70;;;1.80;;
7523;SDS011;3803;51.666;7.630;2023-12-28T01:53:12;2.80;;;1.80;;
7523;SDS011;3803;51.666;7.630;2023-12-28T01:53:34;2.20;;;1.63;;
7523;SDS011;3803;51.666;7.630;2023-12-28T01:53:55;1.80;;;1.58;;
7523;SDS011;3803;51.666;7.630;2023-12-28T01:54:18;1.77;;;1.60;;
7523;SDS011;3803;51.666;7.630;2023-12-28T01:54:41;2.70;;;1.80;;
7523;SDS011;3803;51.666;7.630;2023-12-28T01:55:01;3.70;;;1.77;;
7523;SDS011;3803;51.666;7.630;2023-12-28T01:55:24;3.75;;;1.95;;
7523;SDS011;3803;51.666;7.630;2023-12-28T01:55:46;4.20;;;1.95;;
7523;SDS011;3803;51.666;7.630;2023-12-28T01:56:06;3.83;;;1.80;;
7523;SDS011;3803;51.666;7.630;2023-12-28T01:56:27;3.50;;;1.77;;
7523;SDS011;3803;51.666;7.630;2023-12-28T01:57:07;3.03;;;1.70;;
7523;SDS011;3803;51.666;7.630;2023-12-28T01:57:28;1.83;;;1.63;;
7523;SDS011;3803;51.666;7.630;2023-12-28T01:57:49;2.60;;;1.83;;
7523;SDS011;3803;51.666;7.630;2023-12-28T01:58:10;2.63;;;1.80;;
7523;SDS011;3803;51.666;7.630;2023-12-28T01:58:32;2.50;;;1.70;;
7523;SDS011;3803;51.666;7.630;2023-12-28T01:58:54;4.50;;;1.70;;
7523;SDS011;3803;51.666;7.630;2023-12-28T01:59:15;5.22;;;1.90;;
7523;SDS011;3803;51.666;7.630;2023-12-28T01:59:36;4.38;;;1.92;;
7523;SDS011;3803;51.666;7.630;2023-12-28T01:59:58;2.72;;;1.85;;
7523;SDS011;3803;51.666;7.630;2023-12-28T02:00:33;5.50;;;1.95;;
7523;SDS011;3803;51.666;7.630;2023-12-28T02:00:57;6.45;;;2.20;;
7523;SDS011;3803;51.666;7.630;2023-12-28T02:01:17;3.10;;;1.90;;
7523;SDS011;3803;51.666;7.630;2023-12-28T02:01:38;2.65;;;2.00;;
7523;SDS011;3803;51.666;7.630;2023-12-28T02:01:59;2.47;;;1.83;;
7523;SDS011;3803;51.666;7.630;2023-12-28T02:02:21;2.50;;;1.80;;
7523;SDS011;3803;51.666;7.630;2023-12-28T02:02:46;2.55;;;1.70;;
7523;SDS011;3803;51.666;7.630;2023-12-28T02:03:07;3.38;;;1.80;;
7523;SDS011;3803;51.666;7.630;2023-12-28T02:03:29;3.83;;;1.90;;
7523;SDS011;3803;51.666;7.630;2023-12-28T02:03:49;3.90;;;1.73;;
7523;SDS011;3803;51.666;7.630;2023-12-28T02:04:10;3.17;;;1.70;;
7523;SDS011;3803;51.666;7.630;2023-12-28T02:04:31;3.30;;;2.00;;
7523;SDS011;3803;51.666;7.630;2023-12-28T02:04:52;2.42;;;1.92;;
7523;SDS011;3803;51.666;7.630;2023-12-28T02:05:14;2.45;;;1.90;;
7523;SDS011;3803;51.666;7.630;2023-12-28T02:05:35;2.10;;;1.70;;
7523;SDS011;3803;51.666;7.630;2023-12-28T02:05:56;2.03;;;1.70;;
7523;SDS011;3803;51.666;7.630;2023-12-28T02:06:17;1.95;;;1.70;;
7523;SDS011;3803;51.666;7.630;2023-12-28T02:06:39;2.35;;;1.90;;
7523;SDS011;3803;51.666;7.630;2023-12-28T02:07:00;2.60;;;2.00;;
7523;SDS011;3803;51.666;7.630;2023-12-28T02:07:21;3.20;;;1.90;;
7523;SDS011;3803;51.666;7.630;2023-12-28T02:07:42;3.13;;;1.67;;
7523;SDS011;3803;51.666;7.630;2023-12-28T02:08:02;4.50;;;1.70;;
7523;SDS011;3803;51.666;7.630;2023-12-28T02:08:24;3.35;;;1.70;;
7523;SDS011;3803;51.666;7.630;2023-12-28T02:08:46;3.50;;;1.90;;
7523;SDS011;3803;51.666;7.630;2023-12-28T02:09:07;2.45;;;1.80;;
7523;SDS011;3803;51.666;7.630;2023-12-28T02:09:27;2.77;;;1.97;;
7523;SDS011;3803;51.666;7.630;2023-12-28T02:09:48;3.20;;;1.97;;
7523;SDS011;3803;51.666;7.630;2023-12-28T02:10:09;3.42;;;2.17;;
7523;SDS011;3803;51.666;7.630;2023-12-28T02:10:32;3.80;;;2.10;;
7523;SDS011;3803;51.666;7.630;2023-12-28T02:10:52;3.10;;;2.00;;
7523;SDS011;3803;51.666;7.630;2023-12-28T02:11:15;2.88;;;1.77;;
7523;SDS011;3803;51.666;7.630;2023-12-28T02:11:36;3.08;;;1.80;;
7523;SDS011;3803;51.666;7.630;2023-12-28T02:11:58;3.80;;;2.00;;